Neenah, WI (54957)

11:31 AM CST on February 10, 2016 (GMT -0600)
Byrd Avenue, Neenah | | Change Station
CLOSE
Current Station
Personal Weather Station
Location: Neenah, WI
Elevation: 758 ft
Nearby Weather Stations

Elev 758 ft 44.16 °N, 88.49 °W | Updated 19 seconds ago

Partly Cloudy
Partly Cloudy
13.5 °F
Feels Like 4 °F
N
6.0
Wind Variable Wind from North
Gusts 14.5 mph

Today
High -- | Low -- °F
--% Chance of Precip.
Yesterday
High -- | Low -- °F
Precip. -- in
Pressure 29.99 in
Visibility 10.0 miles
Clouds Scattered Clouds 3500 ft
Windchill 4 °F
Dew Point -21 °F
Humidity 19%
Rainfall 0.00 in
Snow Depth Not available.
7:01 AM 5:15 PM
Waxing Crescent, 6% visible
METAR KATW 101645Z 32011G17KT 10SM SCT035 M12/M21 A2999
Pressure 29.99 in
Visibility 10.0 miles
Clouds Scattered Clouds 3500 ft
Windchill 4 °F
Dew Point -21 °F
Humidity 19%
Rainfall 0.00 in
Snow Depth Not available.
7:01 AM 5:15 PM
Waxing Crescent, 6% visible
METAR KATW 101645Z 32011G17KT 10SM SCT035 M12/M21 A2999

10-Day Weather Forecast

Almanac

Astronomy

Feb. 10, 2016 Rise Set
Actual Time
Civil Twilight
Nautical Twilight
Astronomical Twilight
Moon
Length of Visible Light
Length of Day
Tomorrow will be .
, % of the Moon is Illuminated

Today's Extremes

State Highs State Lows

Community

WunderPhotos

Upload Photos

1,891,898 photos uploaded!

WunderBlog® & News

Nearby

Air Quality

  Air Quality AQ Index Pollutant
Not available.

Snow Depth

Station Depth Elevation

Earthquake Activity

City Distance Mag. Time & Date
Minimum magnitude displayed is 2.5.

Coastal Water Temperatures

Place Temperature

Stations

Nearby Weather Stations

Station Location Temp. Windchill Dew Point Humidity Wind Precip. Elev Updated Type
                   

Watches & Warnings

There are currently no watches in effect.